createdAt,value
2023-03-02T00:00:10.000Z,59.4
2023-03-02T00:01:26.000Z,60
2023-03-02T00:02:41.000Z,60.4
2023-03-02T00:03:57.000Z,60.5
2023-03-02T00:05:14.000Z,60.1
2023-03-02T00:06:29.000Z,60
2023-03-02T00:07:44.000Z,59.7
2023-03-02T00:09:00.000Z,59.8
2023-03-02T00:10:17.000Z,60
2023-03-02T00:11:33.000Z,59.7
2023-03-02T00:12:49.000Z,59.9
2023-03-02T00:14:06.000Z,60
2023-03-02T00:15:22.000Z,60.1
2023-03-02T00:16:38.906Z,59.9
2023-03-02T00:17:54.000Z,60
2023-03-02T00:19:11.000Z,60.3
2023-03-02T00:20:27.000Z,60.6
2023-03-02T00:21:43.000Z,60.8
2023-03-02T00:23:00.000Z,60.6
2023-03-02T00:25:31.000Z,60.7
2023-03-02T00:26:47.000Z,61
2023-03-02T00:28:04.000Z,61.1
2023-03-02T00:29:20.000Z,61.6
2023-03-02T00:30:37.120Z,61.7
2023-03-02T00:31:53.000Z,61.9
2023-03-02T00:33:09.000Z,61.7
2023-03-02T00:34:24.000Z,61.8
2023-03-02T00:35:40.000Z,62
2023-03-02T00:36:55.000Z,62.3
2023-03-02T00:38:10.000Z,62.3
2023-03-02T00:39:26.000Z,62.6
2023-03-02T00:40:43.000Z,62.8
2023-03-02T00:41:59.000Z,63
2023-03-02T00:43:15.000Z,62.9
2023-03-02T00:44:32.000Z,62.7
2023-03-02T00:45:48.000Z,62.4
2023-03-02T00:47:04.000Z,62.5
2023-03-02T00:48:20.000Z,62.4
2023-03-02T00:49:37.000Z,62.4
2023-03-02T00:50:53.000Z,62.3
2023-03-02T00:52:09.000Z,62.6
2023-03-02T00:53:26.000Z,62.6
2023-03-02T00:54:41.644Z,62.9
2023-03-02T00:55:57.000Z,63.3
2023-03-02T00:57:13.000Z,63.3
2023-03-02T00:58:30.000Z,63.3
2023-03-02T00:59:46.000Z,63.2
2023-03-02T01:01:02.000Z,63.3
2023-03-02T01:02:19.000Z,63.6
2023-03-02T01:03:35.000Z,63.7
2023-03-02T01:04:51.000Z,63.8
2023-03-02T01:06:07.000Z,64
2023-03-02T01:07:24.000Z,63.6
2023-03-02T01:08:40.000Z,63.3
2023-03-02T01:09:56.000Z,63.4
2023-03-02T01:11:12.000Z,63.1
2023-03-02T01:12:28.000Z,63.1
2023-03-02T01:13:44.000Z,62.7
2023-03-02T01:15:01.000Z,62.4
2023-03-02T01:16:17.000Z,62.5
2023-03-02T01:17:33.000Z,62.3
2023-03-02T01:18:49.000Z,62.2
2023-03-02T01:20:06.000Z,62.3
2023-03-02T01:21:22.000Z,62.5
2023-03-02T01:22:38.000Z,62.6
2023-03-02T01:23:55.274Z,62.7
2023-03-02T01:25:11.000Z,62.6
2023-03-02T01:26:27.000Z,62.7
2023-03-02T01:27:42.000Z,63.1
2023-03-02T01:28:59.000Z,63.4
2023-03-02T01:30:15.000Z,63.6
2023-03-02T01:31:31.000Z,64
2023-03-02T01:32:48.000Z,64.1
2023-03-02T01:34:04.588Z,63.9
2023-03-02T01:35:20.000Z,64.1
2023-03-02T01:36:36.000Z,64
2023-03-02T01:37:53.000Z,64.2
2023-03-02T01:39:09.000Z,64.5
2023-03-02T01:40:25.000Z,64.7
2023-03-02T01:41:42.000Z,65.2
2023-03-02T01:42:58.000Z,65.2
2023-03-02T01:44:13.000Z,65.1
2023-03-02T01:45:30.220Z,65.1
2023-03-02T01:46:46.000Z,65.6
2023-03-02T01:48:02.000Z,65.5
2023-03-02T01:49:18.000Z,65.5
2023-03-02T01:50:35.336Z,65.8
2023-03-02T01:51:51.000Z,65.8
2023-03-02T01:53:06.000Z,65.7
2023-03-02T01:54:22.000Z,65.6
2023-03-02T01:55:37.000Z,65.3
2023-03-02T01:56:52.000Z,65.4
2023-03-02T01:58:09.170Z,65.3
2023-03-02T01:59:25.000Z,65.2
2023-03-02T02:00:41.000Z,65.2
2023-03-02T02:01:57.000Z,65.1
2023-03-02T02:03:14.000Z,65.2
2023-03-02T02:04:30.610Z,65.3
2023-03-02T02:05:46.000Z,65.4
2023-03-02T02:07:02.000Z,65.4
2023-03-02T02:08:19.000Z,65.2
2023-03-02T02:09:35.000Z,65.1
2023-03-02T02:10:52.045Z,65.2
2023-03-02T02:12:08.000Z,65.1
2023-03-02T02:13:23.000Z,65
2023-03-02T02:14:39.000Z,65.3
2023-03-02T02:15:55.000Z,65.6
2023-03-02T02:17:12.000Z,65.6
2023-03-02T02:18:28.000Z,65.5
2023-03-02T02:19:43.000Z,65.6
2023-03-02T02:21:00.000Z,65.6
2023-03-02T02:22:15.000Z,65.4
2023-03-02T02:23:31.006Z,65.6
2023-03-02T02:24:47.000Z,65.8
2023-03-02T02:26:02.000Z,65.9
2023-03-02T02:27:17.000Z,66.2
2023-03-02T02:28:33.000Z,66.4
2023-03-02T02:29:50.000Z,66.3
2023-03-02T02:31:06.000Z,66.3
2023-03-02T02:32:22.000Z,66.3
2023-03-02T02:33:39.000Z,66.2
2023-03-02T02:34:55.000Z,66.6
2023-03-02T02:36:11.000Z,66.8
2023-03-02T02:37:27.000Z,67
2023-03-02T02:38:44.000Z,67.2
2023-03-02T02:40:00.000Z,67
2023-03-02T02:41:16.000Z,66.6
2023-03-02T02:42:33.000Z,66.2
2023-03-02T02:43:48.000Z,66
2023-03-02T02:45:04.939Z,66
2023-03-02T02:46:20.000Z,66.2
2023-03-02T02:47:37.508Z,66.2
2023-03-02T02:48:53.000Z,66.4
2023-03-02T02:50:09.000Z,66.6
2023-03-02T02:51:26.000Z,67.1
2023-03-02T02:52:41.000Z,67.2
2023-03-02T02:53:56.000Z,67.5
2023-03-02T02:55:12.000Z,67.3
2023-03-02T02:56:27.000Z,67.5
2023-03-02T02:57:43.000Z,67.8
2023-03-02T02:58:59.000Z,67.9
2023-03-02T03:00:16.000Z,68.1
2023-03-02T03:01:32.767Z,68.4
2023-03-02T03:02:48.000Z,68.6
2023-03-02T03:04:05.000Z,68.6
2023-03-02T03:05:21.000Z,68.8
2023-03-02T03:06:37.000Z,68.8
2023-03-02T03:07:53.000Z,68.7
2023-03-02T03:09:10.000Z,68.7
2023-03-02T03:10:26.000Z,68.9
2023-03-02T03:11:42.000Z,69.1
2023-03-02T03:12:58.000Z,69.2
2023-03-02T03:14:14.000Z,69.5
2023-03-02T03:15:30.000Z,69.7
2023-03-02T03:16:47.000Z,70.1
2023-03-02T03:18:03.000Z,70.5
2023-03-02T03:19:19.000Z,70.5
2023-03-02T03:20:35.000Z,70.5
2023-03-02T03:21:51.000Z,70.5
2023-03-02T03:23:06.000Z,70.7
2023-03-02T03:24:21.000Z,70.8
2023-03-02T03:25:37.353Z,71.3
2023-03-02T03:26:53.000Z,71.4
2023-03-02T03:28:09.000Z,71.5
2023-03-02T03:29:25.000Z,71.7
2023-03-02T03:30:42.000Z,71.9
2023-03-02T03:31:58.000Z,72.2
2023-03-02T03:33:14.000Z,72.5
2023-03-02T03:34:31.000Z,72.7
2023-03-02T03:35:47.000Z,72.7
2023-03-02T03:37:03.960Z,73
2023-03-02T03:38:19.000Z,73
2023-03-02T03:39:36.517Z,73.2
2023-03-02T03:40:52.000Z,73.4
2023-03-02T03:42:07.000Z,73.3
2023-03-02T03:43:24.000Z,73.3
2023-03-02T03:44:40.000Z,73.7
2023-03-02T03:45:56.000Z,73.8
2023-03-02T03:47:13.000Z,74
2023-03-02T03:48:29.000Z,74.3
2023-03-02T03:49:45.000Z,74.2
2023-03-02T03:51:01.000Z,74.2
2023-03-02T03:52:18.412Z,74.4
2023-03-02T03:53:34.000Z,74.8
2023-03-02T03:54:50.000Z,75.2
2023-03-02T03:56:07.000Z,75.5
2023-03-02T03:57:23.000Z,75.5
2023-03-02T03:58:38.000Z,75.6
2023-03-02T03:59:54.000Z,75.5
2023-03-02T04:01:11.000Z,75.5
2023-03-02T04:02:27.000Z,75.6
2023-03-02T04:03:43.000Z,75.7
2023-03-02T04:04:59.000Z,75.9
2023-03-02T04:06:14.000Z,76.1
2023-03-02T04:07:30.000Z,76.3
2023-03-02T04:08:45.000Z,76.5
2023-03-02T04:10:01.000Z,76.8
2023-03-02T04:11:17.000Z,77.2
2023-03-02T04:12:33.000Z,77.4
2023-03-02T04:13:50.000Z,77.8
2023-03-02T04:15:06.000Z,78
2023-03-02T04:16:22.000Z,78.1
2023-03-02T04:17:39.274Z,78.1
2023-03-02T04:18:55.000Z,78
2023-03-02T04:20:11.000Z,78
2023-03-02T04:21:27.000Z,78.2
2023-03-02T04:22:44.000Z,78.2
2023-03-02T04:24:00.000Z,78.3
2023-03-02T04:25:16.000Z,78.5
2023-03-02T04:26:32.000Z,78.4
2023-03-02T04:27:48.000Z,78.2
2023-03-02T04:29:04.876Z,78.2
2023-03-02T04:30:21.170Z,78.5
2023-03-02T04:31:37.000Z,78.8
2023-03-02T04:32:53.000Z,79.5
2023-03-02T04:34:09.000Z,79.8
2023-03-02T04:35:25.000Z,79.9
2023-03-02T04:36:40.000Z,79.9
2023-03-02T04:37:56.000Z,80
2023-03-02T04:39:12.000Z,80.1
2023-03-02T04:40:28.000Z,80
2023-03-02T04:41:43.000Z,80
2023-03-02T04:42:59.000Z,80.1
2023-03-02T04:44:16.000Z,80.4
2023-03-02T04:45:32.000Z,80.6
2023-03-02T04:46:48.000Z,80.7
2023-03-02T04:48:05.000Z,80.6
2023-03-02T04:49:21.000Z,80.4
2023-03-02T04:50:37.000Z,80.2
2023-03-02T04:51:53.000Z,80.2
2023-03-02T04:53:10.000Z,80.7
2023-03-02T04:54:26.000Z,81.2
2023-03-02T04:55:43.009Z,81.3
2023-03-02T04:56:59.000Z,81.2
2023-03-02T04:58:14.000Z,81.3
2023-03-02T04:59:30.000Z,81.5
2023-03-02T05:00:46.000Z,81.5
2023-03-02T05:02:03.000Z,81.7
2023-03-02T05:03:19.000Z,81.8
2023-03-02T05:04:35.000Z,81.9
2023-03-02T05:05:52.000Z,82
2023-03-02T05:07:07.000Z,81.9
2023-03-02T05:08:22.952Z,81.9
2023-03-02T05:09:38.000Z,82.1
2023-03-02T05:10:54.000Z,82.1
2023-03-02T05:12:09.000Z,81.7
2023-03-02T05:13:25.000Z,81.9
2023-03-02T05:14:42.000Z,82.1
2023-03-02T05:15:58.000Z,82.5
2023-03-02T05:17:14.000Z,83
2023-03-02T05:18:31.000Z,83.2
2023-03-02T05:19:47.000Z,83.4
2023-03-02T05:21:03.000Z,83.5
2023-03-02T05:22:19.000Z,83.7
2023-03-02T05:23:36.000Z,83.6
2023-03-02T05:24:52.724Z,83.4
2023-03-02T05:26:08.000Z,83.2
2023-03-02T05:27:25.000Z,83.2
2023-03-02T05:28:40.000Z,83.3
2023-03-02T05:29:56.000Z,83.5
2023-03-02T05:31:12.000Z,83.4
2023-03-02T05:32:29.000Z,83.4
2023-03-02T05:33:45.784Z,83.5
2023-03-02T05:35:01.000Z,83.6
2023-03-02T05:36:18.281Z,83.8
2023-03-02T05:37:34.000Z,83.6
2023-03-02T05:38:50.000Z,83.8
2023-03-02T05:40:07.036Z,83.8
2023-03-02T05:41:23.000Z,83.6
2023-03-02T05:42:39.000Z,83.5
2023-03-02T05:43:55.000Z,83.2
2023-03-02T05:45:10.000Z,83.2
2023-03-02T05:46:27.000Z,83.4
2023-03-02T05:47:43.000Z,83.3
2023-03-02T05:48:59.000Z,83
2023-03-02T05:50:15.000Z,83
2023-03-02T05:51:32.315Z,83.2
2023-03-02T05:52:48.000Z,83.3
2023-03-02T05:54:04.000Z,83.4
2023-03-02T05:55:20.000Z,83.6
2023-03-02T05:56:36.000Z,83.7
2023-03-02T05:57:53.482Z,83.7
2023-03-02T05:59:09.701Z,84.1
2023-03-02T06:00:25.000Z,84.7
2023-03-02T06:01:40.000Z,84.8
2023-03-02T06:02:57.000Z,84.5
2023-03-02T06:04:13.000Z,84.5
2023-03-02T06:05:29.000Z,84.8
2023-03-02T06:06:45.000Z,84.5
2023-03-02T06:08:02.366Z,84.3
2023-03-02T06:09:18.000Z,84.3
2023-03-02T06:10:34.000Z,84.8
2023-03-02T06:11:51.069Z,85.1
2023-03-02T06:13:07.000Z,85
2023-03-02T06:14:23.000Z,85
2023-03-02T06:15:39.000Z,85.2
2023-03-02T06:16:55.000Z,85.2
2023-03-02T06:18:11.000Z,85.3
2023-03-02T06:19:27.000Z,85.3
2023-03-02T06:20:43.000Z,85.4
2023-03-02T06:21:59.000Z,85.6
2023-03-02T06:23:15.000Z,86
2023-03-02T06:24:32.000Z,86.2
2023-03-02T06:25:48.000Z,86.3
2023-03-02T06:27:04.000Z,86.3
2023-03-02T06:28:20.000Z,86.3
2023-03-02T06:29:37.345Z,86.5
2023-03-02T06:30:53.000Z,86.6
2023-03-02T06:32:09.000Z,86.5
2023-03-02T06:33:25.000Z,86.4
2023-03-02T06:34:41.000Z,86.4
2023-03-02T06:35:57.000Z,86.4
2023-03-02T06:37:13.000Z,86.4
2023-03-02T06:38:29.000Z,86.5
2023-03-02T06:39:46.000Z,86.4
2023-03-02T06:41:02.000Z,86.6
2023-03-02T06:42:18.000Z,86.7
2023-03-02T06:43:34.952Z,86.6
2023-03-02T06:44:50.000Z,86.6
2023-03-02T06:46:07.406Z,86.6
2023-03-02T06:47:23.000Z,86.5
2023-03-02T06:48:39.000Z,86.6
2023-03-02T06:49:55.000Z,86.6
2023-03-02T06:51:11.000Z,86.5
2023-03-02T06:53:43.000Z,86.2
2023-03-02T06:54:59.000Z,86.3
2023-03-02T06:56:16.000Z,86.3
2023-03-02T06:57:32.564Z,86.2
2023-03-02T06:58:48.000Z,86.4
2023-03-02T07:00:04.000Z,86.7
2023-03-02T07:01:20.000Z,86.6
2023-03-02T07:02:37.468Z,87.1
2023-03-02T07:03:53.708Z,87.4
2023-03-02T07:05:09.000Z,87.4
2023-03-02T07:06:25.000Z,87.2
2023-03-02T07:07:41.000Z,87
2023-03-02T07:08:57.000Z,87
2023-03-02T07:10:13.000Z,87.4
2023-03-02T07:11:29.000Z,87.4
2023-03-02T07:12:46.000Z,87.6
2023-03-02T07:14:02.000Z,87.7
2023-03-02T07:15:18.828Z,87.4
2023-03-02T07:16:34.000Z,87.4
2023-03-02T07:17:51.000Z,87.5
2023-03-02T07:19:07.000Z,87.8
2023-03-02T07:20:23.774Z,87.8
2023-03-02T07:21:40.032Z,87.5
2023-03-02T07:22:55.000Z,86.9
2023-03-02T07:24:11.000Z,86.2
2023-03-02T07:25:27.000Z,86
2023-03-02T07:26:43.000Z,85.7
2023-03-02T07:27:59.000Z,85.4
2023-03-02T07:29:16.437Z,83.8
2023-03-02T07:30:32.000Z,81.8
2023-03-02T07:31:48.000Z,79.4
2023-03-02T07:33:04.000Z,76.6
2023-03-02T07:34:21.000Z,74.3
2023-03-02T07:35:37.000Z,72.7
2023-03-02T07:36:53.000Z,72.9
2023-03-02T07:38:09.000Z,72.8
2023-03-02T07:39:26.000Z,75.5
2023-03-02T07:40:41.000Z,77
2023-03-02T07:41:57.000Z,77.4
2023-03-02T07:43:13.000Z,76.6
2023-03-02T07:44:30.437Z,76.6
2023-03-02T07:45:46.000Z,76
2023-03-02T07:47:02.000Z,74.3
2023-03-02T07:48:18.000Z,72.6
2023-03-02T07:49:34.000Z,71.8
2023-03-02T07:50:51.000Z,71.3
2023-03-02T07:52:07.000Z,70.5
2023-03-02T07:54:39.000Z,67.4
2023-03-02T07:55:56.000Z,65.8
2023-03-02T07:57:11.000Z,66
2023-03-02T07:58:27.000Z,64.7
2023-03-02T07:59:43.000Z,64.9
2023-03-02T08:01:00.000Z,64.8
2023-03-02T08:02:16.000Z,66
2023-03-02T08:03:32.000Z,67.4
2023-03-02T08:04:48.000Z,67.8
2023-03-02T08:06:05.235Z,67.6
2023-03-02T08:07:21.000Z,66.6
2023-03-02T08:08:37.000Z,65.8
2023-03-02T08:09:53.000Z,66.2
2023-03-02T08:11:09.000Z,66.1
2023-03-02T08:12:26.000Z,64.1
2023-03-02T08:13:41.000Z,62.7
2023-03-02T08:14:57.000Z,62.9
2023-03-02T08:16:13.000Z,61.9
2023-03-02T08:17:30.000Z,59.4
2023-03-02T08:18:46.000Z,57.4
2023-03-02T08:20:02.000Z,56.9
2023-03-02T08:21:17.000Z,56.3
2023-03-02T08:22:33.000Z,55
2023-03-02T08:23:48.000Z,56.9
2023-03-02T08:25:03.000Z,56.8
2023-03-02T08:26:19.000Z,56.4
2023-03-02T08:27:36.000Z,56.5
2023-03-02T08:28:52.000Z,55.3
2023-03-02T08:30:08.000Z,56.1
2023-03-02T08:31:25.012Z,55.8
2023-03-02T08:32:40.000Z,54.9
2023-03-02T08:33:57.000Z,52.8
2023-03-02T08:35:13.000Z,52
2023-03-02T08:36:29.000Z,52
2023-03-02T08:37:46.185Z,50.5
2023-03-02T08:39:02.000Z,50.1
2023-03-02T08:40:18.000Z,50.5
2023-03-02T08:41:33.000Z,50.5
2023-03-02T08:42:49.000Z,49.1
2023-03-02T08:44:06.000Z,49
2023-03-02T08:45:22.000Z,48.6
2023-03-02T08:46:38.000Z,48.8
2023-03-02T08:47:54.000Z,48.4
2023-03-02T08:49:11.000Z,47.4
2023-03-02T08:50:27.000Z,47.5
2023-03-02T08:51:43.000Z,46.3
2023-03-02T08:52:59.000Z,46.5
2023-03-02T08:54:15.000Z,45.6
2023-03-02T08:55:32.000Z,46.6
2023-03-02T08:56:48.000Z,46.6
2023-03-02T08:58:03.000Z,47
2023-03-02T08:59:19.000Z,47.4
2023-03-02T09:00:36.000Z,48.2
2023-03-02T09:01:52.000Z,46.3
2023-03-02T09:03:08.000Z,46
2023-03-02T09:04:24.000Z,46.5
2023-03-02T09:05:41.000Z,45.4
2023-03-02T09:06:57.000Z,44.8
2023-03-02T09:08:13.000Z,44.2
2023-03-02T09:10:46.000Z,44.6
2023-03-02T09:12:02.000Z,42.3
2023-03-02T09:13:18.000Z,43.3
2023-03-02T09:14:33.000Z,44.2
2023-03-02T09:15:49.000Z,43.9
2023-03-02T09:17:06.000Z,43.4
2023-03-02T09:18:22.689Z,45.7
2023-03-02T09:19:38.000Z,44.2
2023-03-02T09:20:55.146Z,42.9
2023-03-02T09:22:11.000Z,42.6
2023-03-02T09:23:27.000Z,42.5
2023-03-02T09:24:43.000Z,43.4
2023-03-02T09:25:59.000Z,42
2023-03-02T09:27:16.000Z,42.3
2023-03-02T09:28:32.000Z,43.2
2023-03-02T09:29:48.000Z,42.3
2023-03-02T09:31:03.000Z,41.9
2023-03-02T09:32:20.000Z,42.6
2023-03-02T09:33:36.000Z,41.5
2023-03-02T09:34:52.000Z,42.1
2023-03-02T09:36:08.000Z,43
2023-03-02T09:37:24.000Z,41.3
2023-03-02T09:38:41.000Z,40.8
2023-03-02T09:39:57.000Z,40.4
2023-03-02T09:41:13.000Z,39.5
2023-03-02T09:42:29.000Z,39.1
2023-03-02T09:43:46.000Z,38.8
2023-03-02T09:45:02.000Z,39
2023-03-02T09:46:18.000Z,40.1
2023-03-02T09:47:33.000Z,40.3
2023-03-02T09:48:50.000Z,40
2023-03-02T09:50:06.000Z,38.7
2023-03-02T09:51:22.000Z,38.8
2023-03-02T09:52:38.000Z,38.9
2023-03-02T09:53:54.000Z,38.3
2023-03-02T09:55:11.000Z,38.3
2023-03-02T09:56:27.000Z,38.8
2023-03-02T09:57:43.000Z,39.1
2023-03-02T09:58:59.000Z,38.4
2023-03-02T10:00:16.416Z,38.8
2023-03-02T10:01:32.000Z,39.2
2023-03-02T10:02:48.000Z,39.4
2023-03-02T10:04:03.000Z,39
2023-03-02T10:05:20.000Z,39
2023-03-02T10:06:36.000Z,39.4
2023-03-02T10:07:52.000Z,38.1
2023-03-02T10:09:08.000Z,38.9
2023-03-02T10:10:25.000Z,38.1
2023-03-02T10:11:41.000Z,37.4
2023-03-02T10:12:57.000Z,36.5
2023-03-02T10:14:13.000Z,36.9
2023-03-02T10:15:29.000Z,36
2023-03-02T10:16:46.460Z,35
2023-03-02T10:18:02.000Z,36.1
2023-03-02T10:19:18.000Z,36.2
2023-03-02T10:20:33.000Z,35.9
2023-03-02T10:21:50.000Z,37
2023-03-02T10:23:06.000Z,36.1
2023-03-02T10:24:22.000Z,34.9
2023-03-02T10:25:39.106Z,35.4
2023-03-02T10:26:55.349Z,35.4
2023-03-02T10:28:11.000Z,35.5
2023-03-02T10:29:27.000Z,35.6
2023-03-02T10:30:43.000Z,35.8
2023-03-02T10:32:00.000Z,36.4
2023-03-02T10:33:16.000Z,37
2023-03-02T10:34:32.000Z,36.1
2023-03-02T10:35:48.000Z,35.5
2023-03-02T10:37:03.000Z,35.5
2023-03-02T10:38:20.000Z,34.9
2023-03-02T10:39:36.000Z,34.6
2023-03-02T10:40:52.958Z,34.8
2023-03-02T10:42:08.000Z,34.3
2023-03-02T10:43:25.000Z,33.5
2023-03-02T10:44:41.000Z,33.7
2023-03-02T10:45:57.000Z,33.5
2023-03-02T10:47:13.000Z,33
2023-03-02T10:48:30.000Z,33.3
2023-03-02T10:49:45.000Z,34.3
2023-03-02T10:51:01.000Z,33.9
2023-03-02T10:52:17.000Z,33.3
2023-03-02T10:53:34.000Z,32.5
2023-03-02T10:54:50.000Z,32.5
2023-03-02T10:56:06.000Z,31.8
2023-03-02T10:57:22.000Z,33.4
2023-03-02T10:58:38.000Z,32.3
2023-03-02T10:59:55.000Z,32.8
2023-03-02T11:01:11.000Z,33.4
2023-03-02T11:02:27.000Z,33.6
2023-03-02T11:05:00.000Z,32.9
2023-03-02T11:06:15.000Z,33
2023-03-02T11:07:31.000Z,33.4
2023-03-02T11:08:47.000Z,33.9
2023-03-02T11:10:04.000Z,33.4
2023-03-02T11:11:20.000Z,32.8
2023-03-02T11:12:36.000Z,33
2023-03-02T11:13:52.000Z,32.5
2023-03-02T11:15:09.000Z,33.6
2023-03-02T11:16:25.000Z,32.3
2023-03-02T11:17:41.000Z,34.2
2023-03-02T11:18:57.000Z,34
2023-03-02T11:20:14.000Z,33.1
2023-03-02T11:21:30.000Z,32.6
2023-03-02T11:22:45.000Z,33
2023-03-02T11:24:01.000Z,33.4
2023-03-02T11:25:17.000Z,32.3
2023-03-02T11:26:33.000Z,31.7
2023-03-02T11:27:48.000Z,33
2023-03-02T11:29:04.000Z,32.8
2023-03-02T11:30:20.000Z,33
2023-03-02T11:31:37.000Z,32.5
2023-03-02T11:32:53.000Z,32
2023-03-02T11:34:09.000Z,33.2
2023-03-02T11:35:24.000Z,34.1
2023-03-02T11:36:40.000Z,36.4
2023-03-02T11:37:56.654Z,39.1
2023-03-02T11:39:12.000Z,40.6
2023-03-02T11:40:28.000Z,41.1
2023-03-02T11:43:01.000Z,41.8
2023-03-02T11:44:17.000Z,42
2023-03-02T11:45:33.000Z,42.5
2023-03-02T11:46:50.000Z,41.5
2023-03-02T11:48:06.000Z,40.5
2023-03-02T11:49:22.000Z,39.2
2023-03-02T11:50:38.000Z,38.2
2023-03-02T11:51:54.000Z,38
2023-03-02T11:53:10.000Z,37.1
2023-03-02T11:54:26.000Z,36.5
2023-03-02T11:55:42.000Z,35.5
2023-03-02T11:56:58.000Z,33.7
2023-03-02T11:58:15.000Z,34.2
2023-03-02T11:59:31.000Z,35.4
2023-03-02T12:00:47.000Z,34.5
2023-03-02T12:02:03.000Z,34.2
2023-03-02T12:03:20.000Z,34.5
2023-03-02T12:04:36.000Z,33.1
2023-03-02T12:05:52.000Z,33.3
2023-03-02T12:07:09.050Z,34
2023-03-02T12:08:25.000Z,34.6
2023-03-02T12:09:41.000Z,33.8
2023-03-02T12:10:56.000Z,33.7
2023-03-02T12:12:12.000Z,33
2023-03-02T12:13:28.000Z,32.8
2023-03-02T12:14:45.000Z,32.4
2023-03-02T12:16:01.000Z,31.8
2023-03-02T12:17:17.000Z,32.5
2023-03-02T12:18:33.000Z,31.4
2023-03-02T12:19:50.000Z,31.9
2023-03-02T12:21:06.000Z,32.1
2023-03-02T12:22:22.000Z,32.5
2023-03-02T12:23:38.000Z,32.9
2023-03-02T12:24:55.000Z,33
2023-03-02T12:26:11.000Z,33.1
2023-03-02T12:27:26.000Z,32.9
2023-03-02T12:28:43.182Z,32.8
2023-03-02T12:29:59.000Z,32.3
2023-03-02T12:31:15.000Z,32.8
2023-03-02T12:33:47.000Z,32.7
2023-03-02T12:35:03.000Z,34.3
2023-03-02T12:36:20.458Z,33.3
2023-03-02T12:37:36.000Z,33.8
2023-03-02T12:38:52.000Z,32.8
2023-03-02T12:40:08.000Z,33.5
2023-03-02T12:42:41.000Z,32.6
2023-03-02T12:43:56.000Z,31.6
2023-03-02T12:45:13.075Z,32.1
2023-03-02T12:46:29.000Z,33.8
2023-03-02T12:47:45.000Z,33.5
2023-03-02T12:49:01.000Z,35.7
2023-03-02T12:50:17.000Z,36.4
2023-03-02T12:51:34.258Z,36.3
2023-03-02T12:52:50.000Z,35.7
2023-03-02T12:54:06.000Z,35.3
2023-03-02T12:55:22.000Z,35.7
2023-03-02T12:56:39.208Z,35.1
2023-03-02T12:57:55.000Z,34.1
2023-03-02T12:59:11.000Z,33.2
2023-03-02T13:00:26.000Z,34.4
2023-03-02T13:01:42.000Z,34.3
2023-03-02T13:02:59.000Z,33.8
2023-03-02T13:04:15.000Z,33
2023-03-02T13:05:31.000Z,33.1
2023-03-02T13:06:47.000Z,33.9
2023-03-02T13:08:04.000Z,34.3
2023-03-02T13:09:20.000Z,37.4
2023-03-02T13:11:52.000Z,35.7
2023-03-02T13:13:08.000Z,35.2
2023-03-02T13:14:25.000Z,36.7
2023-03-02T13:15:41.000Z,36.9
2023-03-02T13:16:56.000Z,35.7
2023-03-02T13:18:12.000Z,34.8
2023-03-02T13:19:29.000Z,35.5
2023-03-02T13:20:45.000Z,35.4
2023-03-02T13:22:01.000Z,35.3
2023-03-02T13:24:34.369Z,34.5
2023-03-02T13:25:50.000Z,33.4
2023-03-02T13:27:06.000Z,33.8
2023-03-02T13:28:22.000Z,34.4
2023-03-02T13:29:39.000Z,33.9
2023-03-02T13:30:55.000Z,33.7
2023-03-02T13:32:11.000Z,33.7
2023-03-02T13:33:26.000Z,34.9
2023-03-02T13:34:43.000Z,35.7
2023-03-02T13:35:59.000Z,36.4
2023-03-02T13:37:15.000Z,37.2
2023-03-02T13:38:31.000Z,39.1
2023-03-02T13:39:47.000Z,42.9
2023-03-02T13:41:04.000Z,43.5
2023-03-02T13:42:20.000Z,44.7
2023-03-02T13:43:36.000Z,44.9
2023-03-02T13:44:52.000Z,44.4
2023-03-02T13:46:09.000Z,44.3
2023-03-02T13:47:25.000Z,44.4
2023-03-02T13:48:41.000Z,44.3
2023-03-02T13:49:56.000Z,44.4
2023-03-02T13:51:13.294Z,44.8
2023-03-02T13:52:29.000Z,44
2023-03-02T13:53:45.765Z,44
2023-03-02T13:55:02.002Z,44.3
2023-03-02T13:56:17.000Z,44.3
2023-03-02T13:57:34.485Z,44
2023-03-02T13:58:50.000Z,44.8
2023-03-02T14:00:06.000Z,44.5
2023-03-02T14:01:23.171Z,45.1
2023-03-02T14:02:39.000Z,44.6
2023-03-02T14:03:55.000Z,45
2023-03-02T14:05:11.000Z,46.3
2023-03-02T14:06:26.000Z,45.9
2023-03-02T14:07:43.000Z,45.6
2023-03-02T14:08:59.000Z,45.8
2023-03-02T14:10:15.000Z,45.5
2023-03-02T14:11:31.000Z,46
2023-03-02T14:12:48.000Z,46.5
2023-03-02T14:15:20.000Z,46.4
2023-03-02T14:16:36.000Z,46.2
2023-03-02T14:17:53.219Z,47.1
2023-03-02T14:19:09.000Z,47.7
2023-03-02T14:20:25.000Z,47.8
2023-03-02T14:21:41.000Z,48.9
2023-03-02T14:22:56.000Z,48.4
2023-03-02T14:24:13.000Z,49.3
2023-03-02T14:25:29.000Z,49
2023-03-02T14:26:45.853Z,49.1
2023-03-02T14:28:01.000Z,47.9
2023-03-02T14:29:18.000Z,48.1
2023-03-02T14:30:34.000Z,48.4
2023-03-02T14:31:50.000Z,48.4
2023-03-02T14:33:06.000Z,49.4
2023-03-02T14:34:23.000Z,50.2
2023-03-02T14:35:39.000Z,49.9
2023-03-02T14:36:55.000Z,49.7
2023-03-02T14:38:11.000Z,50
2023-03-02T14:39:26.000Z,49.8
2023-03-02T14:40:43.000Z,49.5
2023-03-02T14:41:59.000Z,50
2023-03-02T14:43:15.000Z,50.5
2023-03-02T14:44:31.000Z,51.3
2023-03-02T14:45:48.000Z,50.9
2023-03-02T14:47:04.000Z,51.5
2023-03-02T14:48:20.000Z,52.5
2023-03-02T14:49:36.000Z,51.1
2023-03-02T14:50:53.000Z,51.6
2023-03-02T14:52:09.535Z,52.6
2023-03-02T14:53:25.000Z,52.8
2023-03-02T14:54:41.000Z,53.9
2023-03-02T14:55:57.000Z,54.7
2023-03-02T14:57:12.000Z,55.1
2023-03-02T14:58:27.000Z,55.3
2023-03-02T14:59:42.000Z,54.9
2023-03-02T15:00:58.000Z,55.3
2023-03-02T15:02:14.000Z,55.1
2023-03-02T15:03:30.000Z,55.6
2023-03-02T15:04:45.000Z,55.5
2023-03-02T15:06:01.000Z,55.4
2023-03-02T15:07:18.000Z,56
2023-03-02T15:08:34.000Z,55.7
2023-03-02T15:09:50.000Z,55.3
2023-03-02T15:11:06.000Z,55.2
2023-03-02T15:12:23.000Z,55.8
2023-03-02T15:13:39.618Z,56.1
2023-03-02T15:14:55.000Z,56.5
2023-03-02T15:16:11.000Z,57.1
2023-03-02T15:17:28.000Z,56.3
2023-03-02T15:18:44.000Z,56
2023-03-02T15:20:00.805Z,56.3
2023-03-02T15:21:15.000Z,56.4
2023-03-02T15:22:32.000Z,57.2
2023-03-02T15:23:48.000Z,57.5
2023-03-02T15:25:04.000Z,57.6
2023-03-02T15:26:20.979Z,58
2023-03-02T15:27:36.000Z,58.4
2023-03-02T15:28:53.000Z,58.3
2023-03-02T15:30:09.000Z,57.9
2023-03-02T15:31:25.000Z,57.6
2023-03-02T15:32:41.000Z,58.5
2023-03-02T15:33:58.000Z,58.6
2023-03-02T15:35:14.000Z,58.1
2023-03-02T15:36:30.000Z,58.1
2023-03-02T15:37:45.000Z,57.9
2023-03-02T15:39:02.000Z,57.8
2023-03-02T15:40:18.000Z,57.5
2023-03-02T15:41:34.000Z,57.9
2023-03-02T15:42:50.000Z,58.2
2023-03-02T15:44:07.000Z,57.9
2023-03-02T15:45:23.495Z,58.1
2023-03-02T15:46:39.000Z,57.6
2023-03-02T15:47:55.000Z,57.9
2023-03-02T15:49:11.000Z,57.4
2023-03-02T15:50:28.000Z,57.4
2023-03-02T15:51:44.000Z,57.5
2023-03-02T15:53:00.000Z,57.6
2023-03-02T15:54:16.000Z,57.2
2023-03-02T15:55:32.000Z,58
2023-03-02T15:56:48.000Z,58.1
2023-03-02T15:58:04.935Z,58.3
2023-03-02T15:59:20.000Z,58.1
2023-03-02T16:00:37.000Z,58
2023-03-02T16:01:53.000Z,58.1
2023-03-02T16:03:09.000Z,58.1
2023-03-02T16:04:25.000Z,58.5
2023-03-02T16:05:41.000Z,58.7
2023-03-02T16:06:58.000Z,59.4
2023-03-02T16:08:14.000Z,58.9
2023-03-02T16:09:30.000Z,59
2023-03-02T16:10:46.000Z,59.7
2023-03-02T16:12:02.000Z,59.7
2023-03-02T16:13:18.640Z,59.9
2023-03-02T16:14:34.000Z,60.6
2023-03-02T16:15:50.000Z,62.3
2023-03-02T16:17:07.000Z,63.6
2023-03-02T16:18:23.000Z,64
2023-03-02T16:19:39.000Z,64.4
2023-03-02T16:20:56.053Z,64.7
2023-03-02T16:22:12.000Z,64.9
2023-03-02T16:23:28.000Z,65
2023-03-02T16:24:44.000Z,65
2023-03-02T16:26:00.000Z,64.5
2023-03-02T16:27:16.000Z,64.3
2023-03-02T16:28:32.000Z,64.2
2023-03-02T16:29:48.000Z,64.5
2023-03-02T16:31:04.000Z,64.6
2023-03-02T16:32:20.000Z,64.6
2023-03-02T16:33:37.000Z,65
2023-03-02T16:34:53.000Z,65.2
2023-03-02T16:36:09.000Z,65.5
2023-03-02T16:37:25.000Z,65.6
2023-03-02T16:38:41.000Z,65.8
2023-03-02T16:39:56.000Z,66.2
2023-03-02T16:41:12.000Z,66.7
2023-03-02T16:42:28.000Z,67
2023-03-02T16:43:45.000Z,67.4
2023-03-02T16:45:01.000Z,68.3
2023-03-02T16:46:17.000Z,68.9
2023-03-02T16:47:33.000Z,69
2023-03-02T16:48:50.000Z,69
2023-03-02T16:50:06.000Z,68.5
2023-03-02T16:51:22.000Z,68.5
2023-03-02T16:52:38.000Z,68.6
2023-03-02T16:53:53.000Z,69.1
2023-03-02T16:55:09.470Z,69
2023-03-02T16:56:25.000Z,68.8
2023-03-02T16:57:41.000Z,69.2
2023-03-02T16:58:58.157Z,69.8
2023-03-02T17:00:14.000Z,70.2
2023-03-02T17:01:30.000Z,70.9
2023-03-02T17:02:46.000Z,70.4
2023-03-02T17:04:02.000Z,70.5
2023-03-02T17:05:19.000Z,70.3
2023-03-02T17:06:35.000Z,70.3
2023-03-02T17:07:51.000Z,71
2023-03-02T17:09:07.000Z,71.5
2023-03-02T17:10:24.000Z,71.6
2023-03-02T17:12:55.000Z,71.9
2023-03-02T17:14:11.000Z,71.8
2023-03-02T17:15:27.000Z,71.4